Terminal Aerodrome Forecast
Issued by NWS Wilmington, OH

Current Version | Previous Version | Text Only | Print | Product List | Glossary Off
Versions: 1 2 3 4 5 6 7 8 9 10 11 12 13 14 15 16

000
FTUS41 KILN 291130
TAFCMH
TAF
KCMH 291130Z 2912/3012 22005KT P6SM SCT200
     FM291900 27008KT P6SM VCTS BKN035CB
     FM300000 29007KT P6SM SCT120
     FM300600 34006KT P6SM SCT020=

USA.gov is the U.S. government's official web portal to all federal, state and local government web resources and services.